createdAt,value
2022-10-31T00:01:41.539Z,10.70
2022-10-31T00:04:10.398Z,10.60
2022-10-31T00:06:38.646Z,10.60
2022-10-31T00:09:12.164Z,10.60
2022-10-31T00:11:40.469Z,10.60
2022-10-31T00:14:09.579Z,10.60
2022-10-31T00:16:38.602Z,10.60
2022-10-31T00:19:09.561Z,10.60
2022-10-31T00:21:38.938Z,10.60
2022-10-31T00:24:09.579Z,10.60
2022-10-31T00:26:40.406Z,10.60
2022-10-31T00:29:08.702Z,10.60
2022-10-31T00:31:37.397Z,10.60
2022-10-31T00:34:09.585Z,10.60
2022-10-31T00:36:37.851Z,10.60
2022-10-31T00:39:16.784Z,10.50
2022-10-31T00:41:45.409Z,10.50
2022-10-31T00:44:14.583Z,10.50
2022-10-31T00:46:43.214Z,10.50
2022-10-31T00:49:13.313Z,10.50
2022-10-31T00:51:45.267Z,10.40
2022-10-31T00:54:18.689Z,10.40
2022-10-31T00:56:47.592Z,10.40
2022-10-31T00:59:15.795Z,10.40
2022-10-31T01:01:44.672Z,10.30
2022-10-31T01:04:13.423Z,10.30
2022-10-31T01:06:41.676Z,10.30
2022-10-31T01:09:10.176Z,10.30
2022-10-31T01:11:39.734Z,10.30
2022-10-31T01:14:11.570Z,10.20
2022-10-31T01:16:41.391Z,10.20
2022-10-31T01:19:10.582Z,10.20
2022-10-31T01:21:40.643Z,10.20
2022-10-31T01:24:10.651Z,10.20
2022-10-31T01:26:41.649Z,10.10
2022-10-31T01:29:11.497Z,10.10
2022-10-31T01:31:43.546Z,10.10
2022-10-31T01:34:18.647Z,10.10
2022-10-31T01:36:52.374Z,10.10
2022-10-31T01:39:21.563Z,10.00
2022-10-31T01:41:57.402Z,10.00
2022-10-31T01:44:54.648Z,10.00
2022-10-31T01:47:34.635Z,10.00
2022-10-31T01:50:06.622Z,10.00
2022-10-31T01:52:42.607Z,10.00
2022-10-31T01:55:16.612Z,10.00
2022-10-31T01:57:50.881Z,10.00
2022-10-31T02:00:21.521Z,10.00
2022-10-31T02:02:57.049Z,9.90
2022-10-31T02:05:28.193Z,9.90
2022-10-31T02:08:00.759Z,9.80
2022-10-31T02:10:34.438Z,9.80
2022-10-31T02:13:09.154Z,9.90
2022-10-31T02:15:47.611Z,9.90
2022-10-31T02:18:18.310Z,9.80
2022-10-31T02:20:56.734Z,9.80
2022-10-31T02:23:54.449Z,9.80
2022-10-31T02:26:55.624Z,9.70
2022-10-31T02:30:06.605Z,9.70
2022-10-31T02:32:53.620Z,9.70
2022-10-31T02:35:38.640Z,9.70
2022-10-31T02:38:19.467Z,9.70
2022-10-31T02:40:55.009Z,9.60
2022-10-31T02:43:50.225Z,9.60
2022-10-31T02:46:30.484Z,9.60
2022-10-31T02:49:07.459Z,9.60
2022-10-31T02:51:39.713Z,9.60
2022-10-31T02:54:18.664Z,9.60
2022-10-31T02:56:47.670Z,9.60
2022-10-31T02:59:16.034Z,9.60
2022-10-31T03:02:03.757Z,9.50
2022-10-31T03:05:14.490Z,9.50
2022-10-31T03:07:51.335Z,9.50
2022-10-31T03:10:28.613Z,9.50
2022-10-31T03:13:04.885Z,9.50
2022-10-31T03:15:36.242Z,9.50
2022-10-31T03:18:09.846Z,9.40
2022-10-31T03:20:43.685Z,9.40
2022-10-31T03:23:17.648Z,9.40
2022-10-31T03:25:53.694Z,9.40
2022-10-31T03:28:31.688Z,9.30
2022-10-31T03:31:04.874Z,9.30
2022-10-31T03:33:40.633Z,9.30
2022-10-31T03:36:14.668Z,9.30
2022-10-31T03:38:44.984Z,9.30
2022-10-31T03:41:18.727Z,9.30
2022-10-31T03:43:54.338Z,9.20
2022-10-31T03:46:24.478Z,9.20
2022-10-31T03:48:55.834Z,9.20
2022-10-31T03:51:29.707Z,9.30
2022-10-31T03:54:04.657Z,9.20
2022-10-31T03:56:39.509Z,9.20
2022-10-31T03:59:12.680Z,9.20
2022-10-31T04:01:51.789Z,9.20
2022-10-31T04:04:22.242Z,9.20
2022-10-31T04:06:54.694Z,9.20
2022-10-31T04:09:24.676Z,9.10
2022-10-31T04:11:56.529Z,9.10
2022-10-31T04:14:52.114Z,9.10
2022-10-31T04:17:26.771Z,9.10
2022-10-31T04:19:55.635Z,9.10
2022-10-31T04:22:29.727Z,9.10
2022-10-31T04:25:02.695Z,9.00
2022-10-31T04:27:31.494Z,9.00
2022-10-31T04:30:01.154Z,9.00
2022-10-31T04:32:29.700Z,9.00
2022-10-31T04:34:58.662Z,9.10
2022-10-31T04:37:35.581Z,9.00
2022-10-31T04:40:06.660Z,9.00
2022-10-31T04:43:05.330Z,9.00
2022-10-31T04:45:34.339Z,9.00
2022-10-31T04:48:07.525Z,8.90
2022-10-31T04:50:38.685Z,8.90
2022-10-31T04:53:08.374Z,8.80
2022-10-31T04:55:45.656Z,8.80
2022-10-31T04:58:23.848Z,8.80
2022-10-31T05:00:54.826Z,8.80
2022-10-31T05:03:23.657Z,8.80
2022-10-31T05:05:52.383Z,8.80
2022-10-31T05:08:23.475Z,8.80
2022-10-31T05:10:54.684Z,8.80
2022-10-31T05:13:24.513Z,8.80
2022-10-31T05:16:11.004Z,8.80
2022-10-31T05:18:50.993Z,8.80
2022-10-31T05:21:48.446Z,8.80
2022-10-31T05:24:18.678Z,8.80
2022-10-31T05:26:49.740Z,8.80
2022-10-31T05:29:18.678Z,8.80
2022-10-31T05:31:46.781Z,8.80
2022-10-31T05:34:38.049Z,8.80
2022-10-31T05:37:29.350Z,8.80
2022-10-31T05:40:05.165Z,8.80
2022-10-31T05:42:36.361Z,8.80
2022-10-31T05:45:06.307Z,8.80
2022-10-31T05:47:53.533Z,8.80
2022-10-31T05:50:40.263Z,8.70
2022-10-31T05:53:12.568Z,8.70
2022-10-31T05:55:45.008Z,8.70
2022-10-31T05:58:20.626Z,8.70
2022-10-31T06:01:01.726Z,8.70
2022-10-31T06:03:31.597Z,8.70
2022-10-31T06:06:02.005Z,8.70
2022-10-31T06:08:39.732Z,8.70
2022-10-31T06:11:15.250Z,8.70
2022-10-31T06:14:07.583Z,8.70
2022-10-31T06:16:58.740Z,8.80
2022-10-31T06:19:47.725Z,8.80
2022-10-31T06:22:21.723Z,8.80
2022-10-31T06:24:50.551Z,8.80
2022-10-31T06:27:30.732Z,8.80
2022-10-31T06:30:12.416Z,8.90
2022-10-31T06:32:44.544Z,8.90
2022-10-31T06:35:12.905Z,8.90
2022-10-31T06:37:44.450Z,9.00
2022-10-31T06:40:30.455Z,9.00
2022-10-31T06:43:29.765Z,9.10
2022-10-31T06:46:18.445Z,9.20
2022-10-31T06:49:09.727Z,9.20
2022-10-31T06:51:50.695Z,9.30
2022-10-31T06:54:23.174Z,9.30
2022-10-31T06:56:51.320Z,9.40
2022-10-31T06:59:21.769Z,9.40
2022-10-31T07:02:11.813Z,9.50
2022-10-31T07:04:42.564Z,9.50
2022-10-31T07:07:14.391Z,9.60
2022-10-31T07:09:42.548Z,9.60
2022-10-31T07:12:12.553Z,9.70
2022-10-31T07:14:53.375Z,9.80
2022-10-31T07:17:29.669Z,9.90
2022-10-31T07:20:02.734Z,10.00
2022-10-31T07:22:35.744Z,10.10
2022-10-31T07:25:09.371Z,10.20
2022-10-31T07:27:56.108Z,10.20
2022-10-31T07:30:26.951Z,10.20
2022-10-31T07:32:58.811Z,10.30
2022-10-31T07:35:40.619Z,10.30
2022-10-31T07:38:11.582Z,10.30
2022-10-31T07:40:40.749Z,10.30
2022-10-31T07:43:13.993Z,10.30
2022-10-31T07:46:09.801Z,10.40
2022-10-31T07:49:16.751Z,10.40
2022-10-31T07:52:05.620Z,10.40
2022-10-31T07:55:14.608Z,10.50
2022-10-31T07:57:48.751Z,10.50
2022-10-31T08:00:17.554Z,10.50
2022-10-31T08:02:47.602Z,10.60
2022-10-31T08:05:46.895Z,10.50
2022-10-31T08:08:37.551Z,10.60
2022-10-31T08:11:07.607Z,10.60
2022-10-31T08:13:36.757Z,10.60
2022-10-31T08:16:08.774Z,10.60
2022-10-31T08:18:46.811Z,10.60
2022-10-31T08:21:16.771Z,10.70
2022-10-31T08:23:51.856Z,10.80
2022-10-31T08:26:23.824Z,10.80
2022-10-31T08:28:55.619Z,10.90
2022-10-31T08:31:34.370Z,11.00
2022-10-31T08:34:43.750Z,11.00
2022-10-31T08:37:35.628Z,11.10
2022-10-31T08:40:06.401Z,11.10
2022-10-31T08:42:36.233Z,11.20
2022-10-31T08:45:08.549Z,11.20
2022-10-31T08:47:39.631Z,11.30
2022-10-31T08:50:10.819Z,11.30
2022-10-31T08:53:03.744Z,11.40
2022-10-31T08:55:28.596Z,11.50
2022-10-31T08:58:12.056Z,11.60
2022-10-31T09:00:51.337Z,11.60
2022-10-31T09:03:27.943Z,11.60
2022-10-31T09:05:59.828Z,11.70
2022-10-31T09:08:35.946Z,11.70
2022-10-31T09:11:08.923Z,11.80
2022-10-31T09:13:56.818Z,11.90
2022-10-31T09:16:31.469Z,12.00
2022-10-31T09:19:00.794Z,12.10
2022-10-31T09:21:30.841Z,12.10
2022-10-31T09:24:02.154Z,12.10
2022-10-31T09:26:31.650Z,12.20
2022-10-31T09:29:11.425Z,12.30
2022-10-31T09:31:44.923Z,12.40
2022-10-31T09:34:46.815Z,12.40
2022-10-31T09:37:21.808Z,12.50
2022-10-31T09:39:50.834Z,12.60
2022-10-31T09:42:46.303Z,12.70
2022-10-31T09:45:25.710Z,12.80
2022-10-31T09:48:12.953Z,12.80
2022-10-31T09:51:03.878Z,12.90
2022-10-31T09:53:40.868Z,13.00
2022-10-31T09:56:38.228Z,13.00
2022-10-31T09:59:14.539Z,13.10
2022-10-31T10:01:50.555Z,13.20
2022-10-31T10:04:40.391Z,13.30
2022-10-31T10:07:27.881Z,13.30
2022-10-31T10:10:16.751Z,13.50
2022-10-31T10:13:28.858Z,13.50
2022-10-31T10:16:14.661Z,13.60
2022-10-31T10:19:03.907Z,13.70
2022-10-31T10:21:43.664Z,13.80
2022-10-31T10:24:27.178Z,13.80
2022-10-31T10:27:07.639Z,13.90
2022-10-31T10:29:42.010Z,14.00
2022-10-31T10:32:16.798Z,14.20
2022-10-31T10:34:49.860Z,14.30
2022-10-31T10:37:26.328Z,14.30
2022-10-31T10:39:58.600Z,14.40
2022-10-31T10:42:47.684Z,14.50
2022-10-31T10:45:36.396Z,14.50
2022-10-31T10:48:13.670Z,14.60
2022-10-31T10:50:47.389Z,14.80
2022-10-31T10:53:36.449Z,14.80
2022-10-31T10:56:17.675Z,14.90
2022-10-31T10:58:47.366Z,15.00
2022-10-31T11:01:17.936Z,15.10
2022-10-31T11:03:46.354Z,15.20
2022-10-31T11:06:26.356Z,15.20
2022-10-31T11:08:55.077Z,15.30
2022-10-31T11:11:31.714Z,15.40
2022-10-31T11:14:07.759Z,15.50
2022-10-31T11:16:41.564Z,15.60
2022-10-31T11:19:16.904Z,15.70
2022-10-31T11:21:51.247Z,15.80
2022-10-31T11:24:27.223Z,15.90
2022-10-31T11:27:13.770Z,16.00
2022-10-31T11:29:43.787Z,16.10
2022-10-31T11:32:22.762Z,16.20
2022-10-31T11:34:53.891Z,16.30
2022-10-31T11:37:25.926Z,16.40
2022-10-31T11:40:00.900Z,16.40
2022-10-31T11:42:32.693Z,16.60
2022-10-31T11:45:07.896Z,16.70
2022-10-31T11:47:37.855Z,16.80
2022-10-31T11:50:20.878Z,16.90
2022-10-31T11:52:49.944Z,17.00
2022-10-31T11:55:33.290Z,17.20
2022-10-31T11:58:05.981Z,17.30
2022-10-31T12:00:41.864Z,17.30
2022-10-31T12:03:17.803Z,17.40
2022-10-31T12:05:49.329Z,17.50
2022-10-31T12:08:20.748Z,17.60
2022-10-31T12:11:02.809Z,17.70
2022-10-31T12:13:36.727Z,17.70
2022-10-31T12:16:14.711Z,17.80
2022-10-31T12:18:55.376Z,17.80
2022-10-31T12:21:52.006Z,17.90
2022-10-31T12:24:35.395Z,18.00
2022-10-31T12:27:19.099Z,18.10
2022-10-31T12:30:03.995Z,18.20
2022-10-31T12:32:46.834Z,18.20
2022-10-31T12:35:46.966Z,18.20
2022-10-31T12:38:32.897Z,18.30
2022-10-31T12:41:20.339Z,18.30
2022-10-31T12:43:55.997Z,18.30
2022-10-31T12:46:33.678Z,18.40
2022-10-31T12:49:28.616Z,18.30
2022-10-31T12:52:14.997Z,18.30
2022-10-31T12:55:02.021Z,18.30
2022-10-31T12:57:37.101Z,18.30
2022-10-31T13:00:17.070Z,18.30
2022-10-31T13:02:51.927Z,18.30
2022-10-31T13:05:33.107Z,18.30
2022-10-31T13:08:07.575Z,18.20
2022-10-31T13:10:42.936Z,18.10
2022-10-31T13:13:18.761Z,18.10
2022-10-31T13:15:52.881Z,17.90
2022-10-31T13:18:29.093Z,17.80
2022-10-31T13:21:01.613Z,17.80
2022-10-31T13:23:51.282Z,17.70
2022-10-31T13:26:26.972Z,17.60
2022-10-31T13:29:03.905Z,17.50
2022-10-31T13:31:32.367Z,17.40
2022-10-31T13:34:04.951Z,17.40
2022-10-31T13:36:44.769Z,17.30
2022-10-31T13:39:24.926Z,17.30
2022-10-31T13:41:56.793Z,17.20
2022-10-31T13:44:28.039Z,17.20
2022-10-31T13:46:57.712Z,17.10
2022-10-31T13:49:41.460Z,17.10
2022-10-31T13:52:25.353Z,17.00
2022-10-31T13:54:59.272Z,16.90
2022-10-31T13:57:38.698Z,16.90
2022-10-31T14:00:25.044Z,16.80
2022-10-31T14:02:59.714Z,16.80
2022-10-31T14:05:32.071Z,16.70
2022-10-31T14:08:07.862Z,16.70
2022-10-31T14:10:40.069Z,16.70
2022-10-31T14:13:11.220Z,16.60
2022-10-31T14:15:44.553Z,16.50
2022-10-31T14:18:24.946Z,16.50
2022-10-31T14:20:54.981Z,16.50
2022-10-31T14:23:48.332Z,16.40
2022-10-31T14:26:26.043Z,16.30
2022-10-31T14:28:56.059Z,16.30
2022-10-31T14:31:38.320Z,16.30
2022-10-31T14:34:24.920Z,16.20
2022-10-31T14:37:04.063Z,16.10
2022-10-31T14:39:38.809Z,16.00
2022-10-31T14:42:23.702Z,16.00
2022-10-31T14:45:23.865Z,15.90
2022-10-31T14:48:06.931Z,15.80
2022-10-31T14:50:48.019Z,15.60
2022-10-31T14:53:21.800Z,15.50
2022-10-31T14:55:55.350Z,15.40
2022-10-31T14:58:30.580Z,15.30
2022-10-31T15:00:59.848Z,15.10
2022-10-31T15:03:34.119Z,15.00
2022-10-31T15:06:08.196Z,15.00
2022-10-31T15:08:40.054Z,14.90
2022-10-31T15:11:18.060Z,14.80
2022-10-31T15:13:48.927Z,14.70
2022-10-31T15:16:23.123Z,14.60
2022-10-31T15:18:55.193Z,14.50
2022-10-31T15:21:26.480Z,14.40
2022-10-31T15:23:57.013Z,14.30
2022-10-31T15:26:35.515Z,14.30
2022-10-31T15:29:05.630Z,14.20
2022-10-31T15:31:34.982Z,14.20
2022-10-31T15:34:07.132Z,14.10
2022-10-31T15:36:38.812Z,14.10
2022-10-31T15:39:08.034Z,14.00
2022-10-31T15:41:53.971Z,14.00
2022-10-31T15:44:29.052Z,14.00
2022-10-31T15:47:00.020Z,13.90
2022-10-31T15:49:37.039Z,13.90
2022-10-31T15:52:09.328Z,13.80
2022-10-31T15:54:43.128Z,13.80
2022-10-31T15:57:14.263Z,13.80
2022-10-31T15:59:47.030Z,13.70
2022-10-31T16:02:19.217Z,13.60
2022-10-31T16:04:52.929Z,13.60
2022-10-31T16:07:23.521Z,13.60
2022-10-31T16:09:55.102Z,13.50
2022-10-31T16:12:26.674Z,13.50
2022-10-31T16:14:59.534Z,13.30
2022-10-31T16:17:30.071Z,13.40
2022-10-31T16:20:00.981Z,13.40
2022-10-31T16:22:31.998Z,13.40
2022-10-31T16:25:06.945Z,13.30
2022-10-31T16:27:39.106Z,13.30
2022-10-31T16:30:47.767Z,13.20
2022-10-31T16:33:26.934Z,13.20
2022-10-31T16:36:04.500Z,13.10
2022-10-31T16:38:46.031Z,13.20
2022-10-31T16:41:14.459Z,13.10
2022-10-31T16:43:46.608Z,13.10
2022-10-31T16:46:20.572Z,13.10
2022-10-31T16:48:48.899Z,13.00
2022-10-31T16:51:17.162Z,12.90
2022-10-31T16:53:46.906Z,12.90
2022-10-31T16:56:25.046Z,12.90
2022-10-31T16:58:58.382Z,12.90
2022-10-31T17:01:27.017Z,12.90
2022-10-31T17:03:55.346Z,12.80
2022-10-31T17:06:23.570Z,12.80
2022-10-31T17:08:51.861Z,12.90
2022-10-31T17:11:27.735Z,12.90
2022-10-31T17:13:57.858Z,12.90
2022-10-31T17:16:26.122Z,12.90
2022-10-31T17:18:54.273Z,12.90
2022-10-31T17:21:25.031Z,12.90
2022-10-31T17:23:57.103Z,12.90
2022-10-31T17:26:25.220Z,12.90
2022-10-31T17:28:53.669Z,12.90
2022-10-31T17:31:25.897Z,12.90
2022-10-31T17:34:02.111Z,12.90
2022-10-31T17:36:31.915Z,12.90
2022-10-31T17:39:01.140Z,13.00
2022-10-31T17:41:32.382Z,13.00
2022-10-31T17:44:01.285Z,13.00
2022-10-31T17:46:30.838Z,13.10
2022-10-31T17:49:00.929Z,13.10
2022-10-31T17:51:29.251Z,13.10
2022-10-31T17:54:01.150Z,13.10
2022-10-31T17:56:29.890Z,13.10
2022-10-31T17:58:59.206Z,13.10
2022-10-31T18:01:27.654Z,13.20
2022-10-31T18:03:58.613Z,13.20
2022-10-31T18:06:28.216Z,13.20
2022-10-31T18:08:58.186Z,13.20
2022-10-31T18:11:26.455Z,13.20
2022-10-31T18:13:57.240Z,13.20
2022-10-31T18:16:26.181Z,13.20
2022-10-31T18:18:59.262Z,13.20
2022-10-31T18:21:28.086Z,13.20
2022-10-31T18:23:58.183Z,13.20
2022-10-31T18:26:29.620Z,13.20
2022-10-31T18:28:59.165Z,13.30
2022-10-31T18:31:27.390Z,13.20
2022-10-31T18:33:58.031Z,13.30
2022-10-31T18:36:27.188Z,13.30
2022-10-31T18:38:55.294Z,13.30
2022-10-31T18:41:26.758Z,13.20
2022-10-31T18:44:00.199Z,13.30
2022-10-31T18:46:29.559Z,13.30
2022-10-31T18:48:59.484Z,13.30
2022-10-31T18:51:28.086Z,13.30
2022-10-31T18:53:58.122Z,13.30
2022-10-31T18:56:27.112Z,13.30
2022-10-31T18:58:56.110Z,13.30
2022-10-31T19:01:27.553Z,13.30
2022-10-31T19:03:58.981Z,13.30
2022-10-31T19:06:30.930Z,13.30
2022-10-31T19:09:03.362Z,13.30
2022-10-31T19:11:33.548Z,13.30
2022-10-31T19:14:02.228Z,13.30
2022-10-31T19:16:30.984Z,13.40
2022-10-31T19:19:03.724Z,13.40
2022-10-31T19:21:32.532Z,13.40
2022-10-31T19:24:01.681Z,13.40
2022-10-31T19:26:30.139Z,13.40
2022-10-31T19:28:58.525Z,13.40
2022-10-31T19:31:26.915Z,13.40
2022-10-31T19:33:55.171Z,13.40
2022-10-31T19:36:26.841Z,13.40
2022-10-31T19:38:55.364Z,13.40
2022-10-31T19:41:26.137Z,13.40
2022-10-31T19:43:58.397Z,13.50
2022-10-31T19:46:52.797Z,13.50
2022-10-31T19:49:15.142Z,13.50
2022-10-31T19:51:44.616Z,13.50
2022-10-31T19:54:16.896Z,13.50
2022-10-31T19:56:45.115Z,13.50
2022-10-31T19:59:13.833Z,13.50
2022-10-31T20:01:42.061Z,13.50
2022-10-31T20:04:11.132Z,13.50
2022-10-31T20:06:45.278Z,13.60
2022-10-31T20:09:15.682Z,13.50
2022-10-31T20:11:45.115Z,13.50
2022-10-31T20:14:16.213Z,13.50
2022-10-31T20:16:45.898Z,13.50
2022-10-31T20:19:14.042Z,13.50
2022-10-31T20:21:42.889Z,13.60
2022-10-31T20:24:12.476Z,13.50
2022-10-31T20:26:42.657Z,13.60
2022-10-31T20:29:15.874Z,13.60
2022-10-31T20:31:45.490Z,13.60
2022-10-31T20:34:14.178Z,13.60
2022-10-31T20:36:42.327Z,13.60
2022-10-31T20:39:13.455Z,13.60
2022-10-31T20:41:42.992Z,13.60
2022-10-31T20:44:11.230Z,13.60
2022-10-31T20:46:39.676Z,13.60
2022-10-31T20:49:08.321Z,13.50
2022-10-31T20:51:36.498Z,13.50
2022-10-31T20:54:08.394Z,13.50
2022-10-31T20:56:36.596Z,13.50
2022-10-31T20:59:07.139Z,13.50
2022-10-31T21:01:37.028Z,13.50
2022-10-31T21:04:08.750Z,13.50
2022-10-31T21:06:36.921Z,13.50
2022-10-31T21:09:06.260Z,13.50
2022-10-31T21:11:34.606Z,13.50
2022-10-31T21:14:02.765Z,13.50
2022-10-31T21:16:36.002Z,13.50
2022-10-31T21:19:05.375Z,13.50
2022-10-31T21:21:35.599Z,13.50
2022-10-31T21:24:06.033Z,13.50
2022-10-31T21:26:38.361Z,13.50
2022-10-31T21:29:08.171Z,13.50
2022-10-31T21:31:39.349Z,13.50
2022-10-31T21:34:07.873Z,13.50
2022-10-31T21:36:37.204Z,13.50
2022-10-31T21:39:09.304Z,13.50
2022-10-31T21:41:38.093Z,13.60
2022-10-31T21:44:06.931Z,13.60
2022-10-31T21:46:35.366Z,13.50
2022-10-31T21:49:08.275Z,13.50
2022-10-31T21:51:38.174Z,13.50
2022-10-31T21:54:24.184Z,13.50
2022-10-31T21:56:52.731Z,13.50
2022-10-31T21:59:25.437Z,13.50
2022-10-31T22:01:56.228Z,13.50
2022-10-31T22:04:27.185Z,13.40
2022-10-31T22:06:59.960Z,13.40
2022-10-31T22:09:28.132Z,13.40
2022-10-31T22:11:56.303Z,13.40
2022-10-31T22:14:24.734Z,13.40
2022-10-31T22:16:52.909Z,13.30
2022-10-31T22:19:21.188Z,13.30
2022-10-31T22:21:50.843Z,13.30
2022-10-31T22:24:21.544Z,13.30
2022-10-31T22:26:50.029Z,13.30
2022-10-31T22:29:21.527Z,13.40
2022-10-31T22:31:58.651Z,13.40
2022-10-31T22:34:29.728Z,13.40
2022-10-31T22:37:02.319Z,13.40
2022-10-31T22:39:30.581Z,13.40
2022-10-31T22:41:58.780Z,13.40
2022-10-31T22:44:28.022Z,13.40
2022-10-31T22:46:56.307Z,13.40
2022-10-31T22:49:25.201Z,13.40
2022-10-31T22:51:53.374Z,13.30
2022-10-31T22:54:25.682Z,13.20
2022-10-31T22:56:53.924Z,13.20
2022-10-31T22:59:23.076Z,13.10
2022-10-31T23:01:54.457Z,13.20
2022-10-31T23:04:25.491Z,13.10
2022-10-31T23:06:54.237Z,13.10
2022-10-31T23:09:24.011Z,13.10
2022-10-31T23:11:52.221Z,13.10
2022-10-31T23:14:21.299Z,13.10
2022-10-31T23:16:52.089Z,13.10
2022-10-31T23:19:24.232Z,13.10
2022-10-31T23:21:58.061Z,13.10
2022-10-31T23:24:36.012Z,13.00
2022-10-31T23:27:08.515Z,13.10
2022-10-31T23:29:45.792Z,13.10
2022-10-31T23:32:21.095Z,13.10
2022-10-31T23:34:50.687Z,13.10
2022-10-31T23:37:20.731Z,13.10
2022-10-31T23:39:53.795Z,13.20
2022-10-31T23:42:22.546Z,13.20
2022-10-31T23:44:52.274Z,13.20
2022-10-31T23:47:21.074Z,13.20
2022-10-31T23:49:50.740Z,13.20
2022-10-31T23:52:19.628Z,13.20
2022-10-31T23:54:50.255Z,13.20
2022-10-31T23:57:19.042Z,13.20
2022-10-31T23:59:48.458Z,13.20
